sensor_id;sensor_type;location;lat;lon;timestamp;temperature;humidity
13808;DHT22;40769;51.512;5.494;2023-10-09T00:00:10;18.20;99.90
13808;DHT22;40769;51.512;5.494;2023-10-09T00:03:15;18.20;99.90
13808;DHT22;40769;51.512;5.494;2023-10-09T00:05:40;18.20;99.90
13808;DHT22;40769;51.512;5.494;2023-10-09T00:08:13;18.20;99.90
13808;DHT22;40769;51.512;5.494;2023-10-09T00:10:48;18.20;99.90
13808;DHT22;40769;51.512;5.494;2023-10-09T00:13:18;18.20;99.90
13808;DHT22;40769;51.512;5.494;2023-10-09T00:15:44;18.10;99.90
13808;DHT22;40769;51.512;5.494;2023-10-09T00:18:17;18.10;99.90
13808;DHT22;40769;51.512;5.494;2023-10-09T00:20:48;18.10;99.90
13808;DHT22;40769;51.512;5.494;2023-10-09T00:23:19;18.20;99.90
13808;DHT22;40769;51.512;5.494;2023-10-09T00:25:49;18.10;99.90
13808;DHT22;40769;51.512;5.494;2023-10-09T00:28:30;18.10;99.90
13808;DHT22;40769;51.512;5.494;2023-10-09T00:30:56;18.10;99.90
13808;DHT22;40769;51.512;5.494;2023-10-09T00:33:22;18.20;99.90
13808;DHT22;40769;51.512;5.494;2023-10-09T00:35:48;18.20;99.90
13808;DHT22;40769;51.512;5.494;2023-10-09T00:38:20;18.20;99.90
13808;DHT22;40769;51.512;5.494;2023-10-09T00:40:46;18.30;99.90
13808;DHT22;40769;51.512;5.494;2023-10-09T00:43:16;18.30;99.90
13808;DHT22;40769;51.512;5.494;2023-10-09T00:45:46;19.30;99.90
13808;DHT22;40769;51.512;5.494;2023-10-09T00:48:13;18.40;99.90
13808;DHT22;40769;51.512;5.494;2023-10-09T00:50:47;18.40;99.90
13808;DHT22;40769;51.512;5.494;2023-10-09T00:53:19;18.50;99.90
13808;DHT22;40769;51.512;5.494;2023-10-09T00:55:57;18.50;99.90
13808;DHT22;40769;51.512;5.494;2023-10-09T00:58:29;18.60;99.90
13808;DHT22;40769;51.512;5.494;2023-10-09T01:00:56;18.60;99.90
13808;DHT22;40769;51.512;5.494;2023-10-09T01:03:24;18.70;99.90
13808;DHT22;40769;51.512;5.494;2023-10-09T01:05:54;18.80;99.90
13808;DHT22;40769;51.512;5.494;2023-10-09T01:08:25;18.80;99.90
13808;DHT22;40769;51.512;5.494;2023-10-09T01:10:57;18.90;99.90
13808;DHT22;40769;51.512;5.494;2023-10-09T01:13:24;19.00;99.90
13808;DHT22;40769;51.512;5.494;2023-10-09T01:16:05;19.00;99.90
13808;DHT22;40769;51.512;5.494;2023-10-09T01:18:34;19.10;99.90
13808;DHT22;40769;51.512;5.494;2023-10-09T01:21:04;19.10;99.90
13808;DHT22;40769;51.512;5.494;2023-10-09T01:23:29;19.20;99.90
13808;DHT22;40769;51.512;5.494;2023-10-09T01:25:55;19.20;99.90
13808;DHT22;40769;51.512;5.494;2023-10-09T01:28:21;19.30;99.90
13808;DHT22;40769;51.512;5.494;2023-10-09T01:30:46;19.30;99.90
13808;DHT22;40769;51.512;5.494;2023-10-09T01:33:13;19.30;99.90
13808;DHT22;40769;51.512;5.494;2023-10-09T01:35:48;19.40;99.90
13808;DHT22;40769;51.512;5.494;2023-10-09T01:38:16;19.40;99.90
13808;DHT22;40769;51.512;5.494;2023-10-09T01:40:41;19.40;99.90
13808;DHT22;40769;51.512;5.494;2023-10-09T01:43:09;19.40;99.90
13808;DHT22;40769;51.512;5.494;2023-10-09T01:45:36;19.40;99.90
13808;DHT22;40769;51.512;5.494;2023-10-09T01:48:09;19.50;99.90
13808;DHT22;40769;51.512;5.494;2023-10-09T01:50:36;19.40;99.90
13808;DHT22;40769;51.512;5.494;2023-10-09T01:53:02;19.40;99.90
13808;DHT22;40769;51.512;5.494;2023-10-09T01:55:31;19.40;99.90
13808;DHT22;40769;51.512;5.494;2023-10-09T01:58:07;19.50;99.90
13808;DHT22;40769;51.512;5.494;2023-10-09T02:00:55;19.50;99.90
13808;DHT22;40769;51.512;5.494;2023-10-09T02:03:22;19.50;99.90
13808;DHT22;40769;51.512;5.494;2023-10-09T02:05:52;20.30;99.90
13808;DHT22;40769;51.512;5.494;2023-10-09T02:08:37;19.50;99.90
13808;DHT22;40769;51.512;5.494;2023-10-09T02:11:02;19.50;99.90
13808;DHT22;40769;51.512;5.494;2023-10-09T02:13:30;19.50;99.90
13808;DHT22;40769;51.512;5.494;2023-10-09T02:15:57;19.40;99.90
13808;DHT22;40769;51.512;5.494;2023-10-09T02:18:51;19.40;99.90
13808;DHT22;40769;51.512;5.494;2023-10-09T02:21:24;19.40;99.90
13808;DHT22;40769;51.512;5.494;2023-10-09T02:24:03;19.40;99.90
13808;DHT22;40769;51.512;5.494;2023-10-09T02:26:35;19.30;99.90
13808;DHT22;40769;51.512;5.494;2023-10-09T02:29:20;19.30;99.90
13808;DHT22;40769;51.512;5.494;2023-10-09T02:31:49;19.30;99.90
13808;DHT22;40769;51.512;5.494;2023-10-09T02:34:20;19.20;99.90
13808;DHT22;40769;51.512;5.494;2023-10-09T02:36:50;19.20;99.90
13808;DHT22;40769;51.512;5.494;2023-10-09T02:39:24;19.20;99.90
13808;DHT22;40769;51.512;5.494;2023-10-09T02:41:53;19.20;99.90
13808;DHT22;40769;51.512;5.494;2023-10-09T02:44:26;19.20;99.90
13808;DHT22;40769;51.512;5.494;2023-10-09T02:46:52;19.20;99.90
13808;DHT22;40769;51.512;5.494;2023-10-09T02:49:23;19.20;99.90
13808;DHT22;40769;51.512;5.494;2023-10-09T02:51:49;19.20;99.90
13808;DHT22;40769;51.512;5.494;2023-10-09T02:54:19;19.20;99.90
13808;DHT22;40769;51.512;5.494;2023-10-09T02:56:48;19.20;99.90
13808;DHT22;40769;51.512;5.494;2023-10-09T02:59:34;19.20;99.90
13808;DHT22;40769;51.512;5.494;2023-10-09T03:02:00;19.10;99.90
13808;DHT22;40769;51.512;5.494;2023-10-09T03:04:26;19.10;99.90
13808;DHT22;40769;51.512;5.494;2023-10-09T03:07:02;19.10;99.90
13808;DHT22;40769;51.512;5.494;2023-10-09T03:09:29;19.10;99.90
13808;DHT22;40769;51.512;5.494;2023-10-09T03:12:03;19.10;99.90
13808;DHT22;40769;51.512;5.494;2023-10-09T03:14:31;19.10;99.90
13808;DHT22;40769;51.512;5.494;2023-10-09T03:16:58;19.10;99.90
13808;DHT22;40769;51.512;5.494;2023-10-09T03:19:30;19.10;99.90
13808;DHT22;40769;51.512;5.494;2023-10-09T03:21:56;19.10;99.90
13808;DHT22;40769;51.512;5.494;2023-10-09T03:24:26;19.10;99.90
13808;DHT22;40769;51.512;5.494;2023-10-09T03:26:53;19.00;99.90
13808;DHT22;40769;51.512;5.494;2023-10-09T03:29:24;19.10;99.90
13808;DHT22;40769;51.512;5.494;2023-10-09T03:31:50;19.00;99.90
13808;DHT22;40769;51.512;5.494;2023-10-09T03:34:17;18.90;99.90
13808;DHT22;40769;51.512;5.494;2023-10-09T03:36:45;19.00;99.90
13808;DHT22;40769;51.512;5.494;2023-10-09T03:39:11;18.90;99.90
13808;DHT22;40769;51.512;5.494;2023-10-09T03:41:56;18.90;99.90
13808;DHT22;40769;51.512;5.494;2023-10-09T03:44:24;18.90;99.90
13808;DHT22;40769;51.512;5.494;2023-10-09T03:46:53;18.90;99.90
13808;DHT22;40769;51.512;5.494;2023-10-09T03:49:19;18.90;99.90
13808;DHT22;40769;51.512;5.494;2023-10-09T03:51:49;18.90;99.90
13808;DHT22;40769;51.512;5.494;2023-10-09T03:54:15;18.80;99.90
13808;DHT22;40769;51.512;5.494;2023-10-09T03:56:43;18.80;99.90
13808;DHT22;40769;51.512;5.494;2023-10-09T03:59:08;18.80;99.90
13808;DHT22;40769;51.512;5.494;2023-10-09T04:01:36;18.80;99.90
13808;DHT22;40769;51.512;5.494;2023-10-09T04:04:05;18.80;99.90
13808;DHT22;40769;51.512;5.494;2023-10-09T04:06:36;18.80;99.90
13808;DHT22;40769;51.512;5.494;2023-10-09T04:09:05;18.80;99.90
13808;DHT22;40769;51.512;5.494;2023-10-09T04:11:43;18.80;99.90
13808;DHT22;40769;51.512;5.494;2023-10-09T04:14:12;18.70;99.90
13808;DHT22;40769;51.512;5.494;2023-10-09T04:16:49;18.60;99.90
13808;DHT22;40769;51.512;5.494;2023-10-09T04:19:28;18.50;99.90
13808;DHT22;40769;51.512;5.494;2023-10-09T04:21:54;18.40;99.90
13808;DHT22;40769;51.512;5.494;2023-10-09T04:24:23;18.30;99.90
13808;DHT22;40769;51.512;5.494;2023-10-09T04:26:50;18.20;99.90
13808;DHT22;40769;51.512;5.494;2023-10-09T04:29:22;18.20;99.90
13808;DHT22;40769;51.512;5.494;2023-10-09T04:31:57;18.10;99.90
13808;DHT22;40769;51.512;5.494;2023-10-09T04:34:26;18.10;99.90
13808;DHT22;40769;51.512;5.494;2023-10-09T04:37:00;18.10;99.90
13808;DHT22;40769;51.512;5.494;2023-10-09T04:39:29;18.20;99.90
13808;DHT22;40769;51.512;5.494;2023-10-09T04:41:56;18.20;99.90
13808;DHT22;40769;51.512;5.494;2023-10-09T04:44:41;18.30;99.90
13808;DHT22;40769;51.512;5.494;2023-10-09T04:47:26;18.40;99.90
13808;DHT22;40769;51.512;5.494;2023-10-09T04:52:59;18.60;99.90
13808;DHT22;40769;51.512;5.494;2023-10-09T04:55:47;18.60;99.90
13808;DHT22;40769;51.512;5.494;2023-10-09T04:58:30;18.70;99.90
13808;DHT22;40769;51.512;5.494;2023-10-09T05:00:58;18.70;99.90
13808;DHT22;40769;51.512;5.494;2023-10-09T05:03:24;18.70;99.90
13808;DHT22;40769;51.512;5.494;2023-10-09T05:06:04;18.80;99.90
13808;DHT22;40769;51.512;5.494;2023-10-09T05:08:50;18.80;99.90
13808;DHT22;40769;51.512;5.494;2023-10-09T05:11:42;18.70;99.90
13808;DHT22;40769;51.512;5.494;2023-10-09T05:14:40;18.70;99.90
13808;DHT22;40769;51.512;5.494;2023-10-09T05:17:28;18.80;99.90
13808;DHT22;40769;51.512;5.494;2023-10-09T05:19:53;18.80;99.90
13808;DHT22;40769;51.512;5.494;2023-10-09T05:22:42;18.80;99.90
13808;DHT22;40769;51.512;5.494;2023-10-09T05:25:25;18.80;99.90
13808;DHT22;40769;51.512;5.494;2023-10-09T05:28:09;18.80;99.90
13808;DHT22;40769;51.512;5.494;2023-10-09T05:30:54;18.80;99.90
13808;DHT22;40769;51.512;5.494;2023-10-09T05:33:46;18.80;99.90
13808;DHT22;40769;51.512;5.494;2023-10-09T05:36:12;18.80;99.90
13808;DHT22;40769;51.512;5.494;2023-10-09T05:38:44;18.80;99.90
13808;DHT22;40769;51.512;5.494;2023-10-09T05:41:27;18.90;99.90
13808;DHT22;40769;51.512;5.494;2023-10-09T05:44:12;18.80;99.90
13808;DHT22;40769;51.512;5.494;2023-10-09T05:46:56;18.90;99.90
13808;DHT22;40769;51.512;5.494;2023-10-09T05:49:40;18.90;99.90
13808;DHT22;40769;51.512;5.494;2023-10-09T05:52:12;18.90;99.90
13808;DHT22;40769;51.512;5.494;2023-10-09T05:54:57;18.90;99.90
13808;DHT22;40769;51.512;5.494;2023-10-09T05:57:41;18.90;99.90
13808;DHT22;40769;51.512;5.494;2023-10-09T06:00:25;18.90;99.90
13808;DHT22;40769;51.512;5.494;2023-10-09T06:03:10;18.90;99.90
13808;DHT22;40769;51.512;5.494;2023-10-09T06:05:45;18.90;99.90
13808;DHT22;40769;51.512;5.494;2023-10-09T06:08:29;18.90;99.90
13808;DHT22;40769;51.512;5.494;2023-10-09T06:11:08;18.90;99.90
13808;DHT22;40769;51.512;5.494;2023-10-09T06:13:55;18.80;99.90
13808;DHT22;40769;51.512;5.494;2023-10-09T06:16:36;18.80;99.90
13808;DHT22;40769;51.512;5.494;2023-10-09T06:19:05;18.90;99.90
13808;DHT22;40769;51.512;5.494;2023-10-09T06:21:40;18.90;99.90
13808;DHT22;40769;51.512;5.494;2023-10-09T06:24:21;18.80;99.90
13808;DHT22;40769;51.512;5.494;2023-10-09T06:27:11;18.90;99.90
13808;DHT22;40769;51.512;5.494;2023-10-09T06:29:42;18.80;99.90
13808;DHT22;40769;51.512;5.494;2023-10-09T06:32:11;18.90;99.90
13808;DHT22;40769;51.512;5.494;2023-10-09T06:34:48;18.80;99.90
13808;DHT22;40769;51.512;5.494;2023-10-09T06:37:39;18.80;99.90
13808;DHT22;40769;51.512;5.494;2023-10-09T06:40:25;18.90;99.90
13808;DHT22;40769;51.512;5.494;2023-10-09T06:43:09;18.80;99.90
13808;DHT22;40769;51.512;5.494;2023-10-09T06:45:40;18.90;99.90
13808;DHT22;40769;51.512;5.494;2023-10-09T06:48:26;18.90;99.90
13808;DHT22;40769;51.512;5.494;2023-10-09T06:51:04;19.00;99.90
13808;DHT22;40769;51.512;5.494;2023-10-09T06:53:39;19.00;99.90
13808;DHT22;40769;51.512;5.494;2023-10-09T06:56:27;19.10;99.90
13808;DHT22;40769;51.512;5.494;2023-10-09T06:59:04;19.10;99.90
13808;DHT22;40769;51.512;5.494;2023-10-09T07:01:48;19.20;99.90
13808;DHT22;40769;51.512;5.494;2023-10-09T07:04:32;19.20;99.90
13808;DHT22;40769;51.512;5.494;2023-10-09T07:06:58;19.30;99.90
13808;DHT22;40769;51.512;5.494;2023-10-09T07:09:24;19.30;99.90
13808;DHT22;40769;51.512;5.494;2023-10-09T07:12:10;19.30;99.90
13808;DHT22;40769;51.512;5.494;2023-10-09T07:14:46;19.40;99.90
13808;DHT22;40769;51.512;5.494;2023-10-09T07:17:12;19.40;99.90
13808;DHT22;40769;51.512;5.494;2023-10-09T07:19:56;19.50;99.90
13808;DHT22;40769;51.512;5.494;2023-10-09T07:22:37;19.60;99.90
13808;DHT22;40769;51.512;5.494;2023-10-09T07:25:20;19.70;99.90
13808;DHT22;40769;51.512;5.494;2023-10-09T07:28:04;19.80;99.90
13808;DHT22;40769;51.512;5.494;2023-10-09T07:30:44;19.80;99.90
13808;DHT22;40769;51.512;5.494;2023-10-09T07:33:11;19.80;99.90
13808;DHT22;40769;51.512;5.494;2023-10-09T07:35:43;19.80;99.90
13808;DHT22;40769;51.512;5.494;2023-10-09T07:38:17;19.90;99.90
13808;DHT22;40769;51.512;5.494;2023-10-09T07:40:51;19.90;99.90
13808;DHT22;40769;51.512;5.494;2023-10-09T07:43:34;19.90;99.90
13808;DHT22;40769;51.512;5.494;2023-10-09T07:46:18;20.00;99.90
13808;DHT22;40769;51.512;5.494;2023-10-09T07:49:00;20.00;99.90
13808;DHT22;40769;51.512;5.494;2023-10-09T07:51:40;20.10;99.90
13808;DHT22;40769;51.512;5.494;2023-10-09T07:54:09;20.10;99.90
13808;DHT22;40769;51.512;5.494;2023-10-09T07:56:41;20.20;99.90
13808;DHT22;40769;51.512;5.494;2023-10-09T07:59:11;20.10;99.90
13808;DHT22;40769;51.512;5.494;2023-10-09T08:01:44;20.20;99.90
13808;DHT22;40769;51.512;5.494;2023-10-09T08:04:28;20.20;99.90
13808;DHT22;40769;51.512;5.494;2023-10-09T08:07:04;20.20;99.90
13808;DHT22;40769;51.512;5.494;2023-10-09T08:09:33;20.10;99.90
13808;DHT22;40769;51.512;5.494;2023-10-09T08:12:19;20.20;99.90
13808;DHT22;40769;51.512;5.494;2023-10-09T08:15:03;20.20;99.90
13808;DHT22;40769;51.512;5.494;2023-10-09T08:17:48;20.10;99.90
13808;DHT22;40769;51.512;5.494;2023-10-09T08:20:28;20.10;99.90
13808;DHT22;40769;51.512;5.494;2023-10-09T08:23:01;20.10;99.90
13808;DHT22;40769;51.512;5.494;2023-10-09T08:25:30;20.10;99.90
13808;DHT22;40769;51.512;5.494;2023-10-09T08:28:02;20.20;99.90
13808;DHT22;40769;51.512;5.494;2023-10-09T08:30:39;20.20;99.90
13808;DHT22;40769;51.512;5.494;2023-10-09T08:33:29;20.30;99.90
13808;DHT22;40769;51.512;5.494;2023-10-09T08:36:08;20.30;99.90
13808;DHT22;40769;51.512;5.494;2023-10-09T08:38:35;20.40;99.90
13808;DHT22;40769;51.512;5.494;2023-10-09T08:41:11;20.40;99.90
13808;DHT22;40769;51.512;5.494;2023-10-09T08:43:52;20.50;99.90
13808;DHT22;40769;51.512;5.494;2023-10-09T08:46:20;20.50;99.90
13808;DHT22;40769;51.512;5.494;2023-10-09T08:48:46;20.60;99.90
13808;DHT22;40769;51.512;5.494;2023-10-09T08:51:12;20.60;99.90
13808;DHT22;40769;51.512;5.494;2023-10-09T08:53:40;20.70;99.90
13808;DHT22;40769;51.512;5.494;2023-10-09T08:56:10;20.70;99.90
13808;DHT22;40769;51.512;5.494;2023-10-09T08:58:36;20.80;99.90
13808;DHT22;40769;51.512;5.494;2023-10-09T09:01:06;20.90;99.90
13808;DHT22;40769;51.512;5.494;2023-10-09T09:03:39;21.00;99.90
13808;DHT22;40769;51.512;5.494;2023-10-09T09:06:05;21.10;99.90
13808;DHT22;40769;51.512;5.494;2023-10-09T09:08:32;21.20;99.90
13808;DHT22;40769;51.512;5.494;2023-10-09T09:11:09;21.30;99.90
13808;DHT22;40769;51.512;5.494;2023-10-09T09:13:39;21.40;99.90
13808;DHT22;40769;51.512;5.494;2023-10-09T09:16:16;21.60;99.90
13808;DHT22;40769;51.512;5.494;2023-10-09T09:18:57;21.70;99.90
13808;DHT22;40769;51.512;5.494;2023-10-09T09:21:36;21.80;99.90
13808;DHT22;40769;51.512;5.494;2023-10-09T09:24:07;21.90;99.90
13808;DHT22;40769;51.512;5.494;2023-10-09T09:26:43;22.10;99.90
13808;DHT22;40769;51.512;5.494;2023-10-09T09:29:15;22.30;99.90
13808;DHT22;40769;51.512;5.494;2023-10-09T09:31:56;22.40;99.90
13808;DHT22;40769;51.512;5.494;2023-10-09T09:34:45;22.50;99.90
13808;DHT22;40769;51.512;5.494;2023-10-09T09:37:19;22.60;99.90
13808;DHT22;40769;51.512;5.494;2023-10-09T09:39:46;22.70;99.90
13808;DHT22;40769;51.512;5.494;2023-10-09T09:42:15;22.80;99.90
13808;DHT22;40769;51.512;5.494;2023-10-09T09:44:43;22.90;99.90
13808;DHT22;40769;51.512;5.494;2023-10-09T09:47:13;23.00;99.90
13808;DHT22;40769;51.512;5.494;2023-10-09T09:49:42;23.00;99.90
13808;DHT22;40769;51.512;5.494;2023-10-09T09:52:09;23.10;99.90
13808;DHT22;40769;51.512;5.494;2023-10-09T09:54:38;23.20;99.90
13808;DHT22;40769;51.512;5.494;2023-10-09T09:57:05;23.30;99.90
13808;DHT22;40769;51.512;5.494;2023-10-09T09:59:38;23.40;99.90
13808;DHT22;40769;51.512;5.494;2023-10-09T10:02:36;23.40;99.90
13808;DHT22;40769;51.512;5.494;2023-10-09T10:05:06;23.50;99.90
13808;DHT22;40769;51.512;5.494;2023-10-09T10:07:34;23.60;99.90
13808;DHT22;40769;51.512;5.494;2023-10-09T10:10:38;23.70;99.90
13808;DHT22;40769;51.512;5.494;2023-10-09T10:13:05;23.70;99.90
13808;DHT22;40769;51.512;5.494;2023-10-09T10:15:57;23.80;99.90
13808;DHT22;40769;51.512;5.494;2023-10-09T10:18:23;23.90;99.90
13808;DHT22;40769;51.512;5.494;2023-10-09T10:23:44;24.00;99.90
13808;DHT22;40769;51.512;5.494;2023-10-09T10:26:17;24.10;99.90
13808;DHT22;40769;51.512;5.494;2023-10-09T10:29:41;24.10;99.90
13808;DHT22;40769;51.512;5.494;2023-10-09T10:32:04;24.10;99.90
13808;DHT22;40769;51.512;5.494;2023-10-09T10:34:54;24.20;99.90
13808;DHT22;40769;51.512;5.494;2023-10-09T10:37:38;24.20;99.90
13808;DHT22;40769;51.512;5.494;2023-10-09T10:40:10;24.30;99.90
13808;DHT22;40769;51.512;5.494;2023-10-09T10:42:48;24.30;99.90
13808;DHT22;40769;51.512;5.494;2023-10-09T10:46:02;24.40;99.90
13808;DHT22;40769;51.512;5.494;2023-10-09T10:48:36;24.40;99.90
13808;DHT22;40769;51.512;5.494;2023-10-09T10:51:10;24.50;99.90
13808;DHT22;40769;51.512;5.494;2023-10-09T10:53:37;24.60;99.90
13808;DHT22;40769;51.512;5.494;2023-10-09T10:56:14;24.80;99.90
13808;DHT22;40769;51.512;5.494;2023-10-09T10:58:41;24.90;99.90
13808;DHT22;40769;51.512;5.494;2023-10-09T11:01:13;25.00;99.90
13808;DHT22;40769;51.512;5.494;2023-10-09T11:03:39;25.00;99.90
13808;DHT22;40769;51.512;5.494;2023-10-09T11:06:27;25.00;99.90
13808;DHT22;40769;51.512;5.494;2023-10-09T11:09:09;25.00;99.90
13808;DHT22;40769;51.512;5.494;2023-10-09T11:11:48;25.00;99.90
13808;DHT22;40769;51.512;5.494;2023-10-09T11:14:15;24.90;99.90
13808;DHT22;40769;51.512;5.494;2023-10-09T11:16:41;24.90;99.90
13808;DHT22;40769;51.512;5.494;2023-10-09T11:19:14;24.90;99.90
13808;DHT22;40769;51.512;5.494;2023-10-09T11:21:53;25.00;99.90
13808;DHT22;40769;51.512;5.494;2023-10-09T11:24:48;25.00;99.90
13808;DHT22;40769;51.512;5.494;2023-10-09T11:27:27;25.00;99.90
13808;DHT22;40769;51.512;5.494;2023-10-09T11:29:57;25.00;99.90
13808;DHT22;40769;51.512;5.494;2023-10-09T11:32:36;25.00;99.90
13808;DHT22;40769;51.512;5.494;2023-10-09T11:35:14;25.00;99.90
13808;DHT22;40769;51.512;5.494;2023-10-09T11:38:02;24.90;99.90
13808;DHT22;40769;51.512;5.494;2023-10-09T11:40:46;24.90;99.90
13808;DHT22;40769;51.512;5.494;2023-10-09T11:43:18;24.90;99.90
13808;DHT22;40769;51.512;5.494;2023-10-09T11:45:49;24.90;99.90
13808;DHT22;40769;51.512;5.494;2023-10-09T11:48:21;24.90;99.90
13808;DHT22;40769;51.512;5.494;2023-10-09T11:51:12;24.90;99.90
13808;DHT22;40769;51.512;5.494;2023-10-09T11:53:45;25.00;99.90
13808;DHT22;40769;51.512;5.494;2023-10-09T11:56:22;25.10;99.90
13808;DHT22;40769;51.512;5.494;2023-10-09T11:58:49;25.20;99.90
13808;DHT22;40769;51.512;5.494;2023-10-09T12:01:20;25.30;99.90
13808;DHT22;40769;51.512;5.494;2023-10-09T12:03:48;25.30;99.90
13808;DHT22;40769;51.512;5.494;2023-10-09T12:06:19;25.40;99.90
13808;DHT22;40769;51.512;5.494;2023-10-09T12:08:47;25.40;99.90
13808;DHT22;40769;51.512;5.494;2023-10-09T12:11:13;25.40;99.90
13808;DHT22;40769;51.512;5.494;2023-10-09T12:13:41;25.40;99.90
13808;DHT22;40769;51.512;5.494;2023-10-09T12:16:11;24.60;99.90
13808;DHT22;40769;51.512;5.494;2023-10-09T12:18:37;25.40;99.90
13808;DHT22;40769;51.512;5.494;2023-10-09T12:21:05;25.30;99.90
13808;DHT22;40769;51.512;5.494;2023-10-09T12:23:31;25.30;99.90
13808;DHT22;40769;51.512;5.494;2023-10-09T12:26:04;25.30;99.90
13808;DHT22;40769;51.512;5.494;2023-10-09T12:28:30;25.40;99.90
13808;DHT22;40769;51.512;5.494;2023-10-09T12:30:59;25.40;99.90
13808;DHT22;40769;51.512;5.494;2023-10-09T12:33:27;25.40;99.90
13808;DHT22;40769;51.512;5.494;2023-10-09T12:35:57;25.40;99.90
13808;DHT22;40769;51.512;5.494;2023-10-09T12:38:29;25.40;99.90
13808;DHT22;40769;51.512;5.494;2023-10-09T12:41:05;25.40;99.90
13808;DHT22;40769;51.512;5.494;2023-10-09T12:43:44;25.40;99.90
13808;DHT22;40769;51.512;5.494;2023-10-09T12:46:09;25.40;99.90
13808;DHT22;40769;51.512;5.494;2023-10-09T12:48:35;25.40;99.90
13808;DHT22;40769;51.512;5.494;2023-10-09T12:51:03;25.50;99.90
13808;DHT22;40769;51.512;5.494;2023-10-09T12:53:33;25.50;99.90
13808;DHT22;40769;51.512;5.494;2023-10-09T12:55:59;25.60;99.90
13808;DHT22;40769;51.512;5.494;2023-10-09T12:58:25;25.60;99.90
13808;DHT22;40769;51.512;5.494;2023-10-09T13:00:52;25.70;99.90
13808;DHT22;40769;51.512;5.494;2023-10-09T13:03:18;25.80;99.90
13808;DHT22;40769;51.512;5.494;2023-10-09T13:05:50;25.80;99.90
13808;DHT22;40769;51.512;5.494;2023-10-09T13:10:53;26.00;99.90
13808;DHT22;40769;51.512;5.494;2023-10-09T13:13:28;26.00;99.90
13808;DHT22;40769;51.512;5.494;2023-10-09T13:16:19;26.00;99.90
13808;DHT22;40769;51.512;5.494;2023-10-09T13:18:54;26.10;99.90
13808;DHT22;40769;51.512;5.494;2023-10-09T13:21:21;26.20;99.90
13808;DHT22;40769;51.512;5.494;2023-10-09T13:23:48;26.30;99.90
13808;DHT22;40769;51.512;5.494;2023-10-09T13:26:16;26.30;99.90
13808;DHT22;40769;51.512;5.494;2023-10-09T13:28:50;26.40;99.90
13808;DHT22;40769;51.512;5.494;2023-10-09T13:31:16;26.40;99.90
13808;DHT22;40769;51.512;5.494;2023-10-09T13:33:44;26.40;99.90
13808;DHT22;40769;51.512;5.494;2023-10-09T13:36:10;26.40;99.90
13808;DHT22;40769;51.512;5.494;2023-10-09T13:38:53;26.40;99.90
13808;DHT22;40769;51.512;5.494;2023-10-09T13:41:19;26.40;99.90
13808;DHT22;40769;51.512;5.494;2023-10-09T13:43:45;26.40;99.90
13808;DHT22;40769;51.512;5.494;2023-10-09T13:46:11;26.40;99.90
13808;DHT22;40769;51.512;5.494;2023-10-09T13:48:40;26.40;99.90
13808;DHT22;40769;51.512;5.494;2023-10-09T13:51:10;26.40;99.90
13808;DHT22;40769;51.512;5.494;2023-10-09T13:53:43;26.50;99.90
13808;DHT22;40769;51.512;5.494;2023-10-09T13:56:18;26.50;99.90
13808;DHT22;40769;51.512;5.494;2023-10-09T13:58:45;26.50;99.90
13808;DHT22;40769;51.512;5.494;2023-10-09T14:01:11;26.60;99.90
13808;DHT22;40769;51.512;5.494;2023-10-09T14:03:46;26.70;99.90
13808;DHT22;40769;51.512;5.494;2023-10-09T14:06:16;26.70;99.90
13808;DHT22;40769;51.512;5.494;2023-10-09T14:08:45;26.70;99.90
13808;DHT22;40769;51.512;5.494;2023-10-09T14:11:11;26.70;99.90
13808;DHT22;40769;51.512;5.494;2023-10-09T14:13:42;26.70;99.90
13808;DHT22;40769;51.512;5.494;2023-10-09T14:16:08;26.70;99.90
13808;DHT22;40769;51.512;5.494;2023-10-09T14:18:50;26.70;99.90
13808;DHT22;40769;51.512;5.494;2023-10-09T14:21:19;26.70;99.90
13808;DHT22;40769;51.512;5.494;2023-10-09T14:23:45;26.70;99.90
13808;DHT22;40769;51.512;5.494;2023-10-09T14:26:14;26.70;99.90
13808;DHT22;40769;51.512;5.494;2023-10-09T14:28:39;26.60;99.90
13808;DHT22;40769;51.512;5.494;2023-10-09T14:31:05;26.60;99.90
13808;DHT22;40769;51.512;5.494;2023-10-09T14:33:37;26.70;99.90
13808;DHT22;40769;51.512;5.494;2023-10-09T14:36:02;26.70;99.90
13808;DHT22;40769;51.512;5.494;2023-10-09T14:38:31;26.80;99.90
13808;DHT22;40769;51.512;5.494;2023-10-09T14:41:00;26.90;99.90
13808;DHT22;40769;51.512;5.494;2023-10-09T14:43:27;27.10;99.90
13808;DHT22;40769;51.512;5.494;2023-10-09T14:45:54;27.20;99.90
13808;DHT22;40769;51.512;5.494;2023-10-09T14:48:20;27.50;99.90
13808;DHT22;40769;51.512;5.494;2023-10-09T14:50:52;27.60;99.90
13808;DHT22;40769;51.512;5.494;2023-10-09T14:53:19;27.80;99.90
13808;DHT22;40769;51.512;5.494;2023-10-09T14:55:46;27.90;99.90
13808;DHT22;40769;51.512;5.494;2023-10-09T14:58:13;28.00;99.90
13808;DHT22;40769;51.512;5.494;2023-10-09T15:00:39;28.10;99.90
13808;DHT22;40769;51.512;5.494;2023-10-09T15:03:14;28.20;99.90
13808;DHT22;40769;51.512;5.494;2023-10-09T15:05:41;28.20;99.90
13808;DHT22;40769;51.512;5.494;2023-10-09T15:08:10;28.30;99.90
13808;DHT22;40769;51.512;5.494;2023-10-09T15:10:50;28.20;99.90
13808;DHT22;40769;51.512;5.494;2023-10-09T15:13:22;28.10;99.90
13808;DHT22;40769;51.512;5.494;2023-10-09T15:15:54;27.90;99.90
13808;DHT22;40769;51.512;5.494;2023-10-09T15:18:23;27.70;99.90
13808;DHT22;40769;51.512;5.494;2023-10-09T15:20:50;27.40;99.90
13808;DHT22;40769;51.512;5.494;2023-10-09T15:23:17;27.20;99.90
13808;DHT22;40769;51.512;5.494;2023-10-09T15:25:45;27.00;99.90
13808;DHT22;40769;51.512;5.494;2023-10-09T15:28:15;26.80;99.90
13808;DHT22;40769;51.512;5.494;2023-10-09T15:30:41;26.60;99.90
13808;DHT22;40769;51.512;5.494;2023-10-09T15:33:08;26.40;99.90
13808;DHT22;40769;51.512;5.494;2023-10-09T15:35:36;26.30;99.90
13808;DHT22;40769;51.512;5.494;2023-10-09T15:38:03;26.10;99.90
13808;DHT22;40769;51.512;5.494;2023-10-09T15:40:30;26.10;99.90
13808;DHT22;40769;51.512;5.494;2023-10-09T15:42:59;26.10;99.90
13808;DHT22;40769;51.512;5.494;2023-10-09T15:45:25;26.10;99.90
13808;DHT22;40769;51.512;5.494;2023-10-09T15:47:54;26.20;99.90
13808;DHT22;40769;51.512;5.494;2023-10-09T15:50:21;26.30;99.90
13808;DHT22;40769;51.512;5.494;2023-10-09T15:52:52;26.40;99.90
13808;DHT22;40769;51.512;5.494;2023-10-09T15:55:22;26.30;99.90
13808;DHT22;40769;51.512;5.494;2023-10-09T15:57:50;26.30;99.90
13808;DHT22;40769;51.512;5.494;2023-10-09T16:00:24;26.30;99.90
13808;DHT22;40769;51.512;5.494;2023-10-09T16:02:56;26.30;99.90
13808;DHT22;40769;51.512;5.494;2023-10-09T16:05:23;26.40;99.90
13808;DHT22;40769;51.512;5.494;2023-10-09T16:07:52;26.40;99.90
13808;DHT22;40769;51.512;5.494;2023-10-09T16:10:19;26.40;99.90
13808;DHT22;40769;51.512;5.494;2023-10-09T16:12:46;26.40;99.90
13808;DHT22;40769;51.512;5.494;2023-10-09T16:15:12;26.30;99.90